ADDS METAR Data INFO
IDs: Format: Raw Decoded Include TAF

Data at: 0958 UTC 12 Dec 2017

PAZK 120956Z AUTO 35008KT 10SM FEW120 M07/M08 A2966 RMK AO2 SLP101 T10671083 FZRANO
PAZK 120856Z AUTO 04004KT 10SM CLR M08/M09 A2966 RMK AO2 SLP104 T10781089 410111078 58003 FZRANO
PAZK 120756Z AUTO 20003KT 10SM CLR M07/M08 A2967 RMK AO2 SLP106 T10721083 FZRANO
PAZK 120656Z AUTO 15003KT 10SM CLR M07/M09 A2968 RMK AO2 SLP106 T10671089 FZRANO
PAZK 120556Z AUTO 00000KT 10SM CLR M05/M07 A2967 RMK AO2 SLP102 T10501067 11033 21061 51014 FZRANO
PAZK 120456Z AUTO 00000KT 10SM SCT120 M06/M07 A2966 RMK AO2 SLP098 T10561072 FZRANO
PAZK 120356Z AUTO 36008KT 10SM CLR M04/M07 A2965 RMK AO2 SLP094 T10391067 FZRANO
PAZK 120256Z AUTO 33011KT 10SM CLR M05/M09 A2963 RMK AO2 SLP089 T10501089 51006 FZRANO
PAZK 120156Z AUTO 36008KT 10SM CLR M05/M08 A2963 RMK AO2 SLP090 T10501078 FZRANO
PAZK 120056Z AUTO 10005KT 10SM CLR M05/M08 A2962 RMK AO2 SLP087 T10501078 FZRANO
PAZK 112256Z AUTO 34006KT 10SM CLR M04/M07 A2959 RMK AO2 SLP074 T10441072 FZRANO
PAZK 112156Z AUTO VRB03KT 10SM FEW065 M03/M06 A2956 RMK AO2 SLP063 T10281061 FZRANO
PAZK 112056Z AUTO 01003KT 10SM FEW028 M02/M04 A2950 RMK AO2 UPB28E36SNE28 SLP042 P0000 60000 T10221039 53040 FZRANO
PAZK 111956Z AUTO 16008KT 9SM -SN SCT020 BKN048 M02/M03 A2944 RMK AO2 SLP022 P0000 T10171028 FZRANO
PAZK 111927Z AUTO 11009KT 9SM -SN BKN020 BKN047 OVC055 M02/M03 A2942 RMK AO2 P0000 FZRANO
PAZK 111856Z AUTO 13004KT 9SM -SN FEW005 BKN032 OVC055 M02/M02 A2938 RMK AO2 SLP998 P0000 T10171022 FZRANO
PAZK 111851Z AUTO 14006KT 9SM -SN FEW005 BKN030 OVC055 M02/M02 A2937 RMK AO2 P0000 FZRANO
PAZK 111837Z AUTO 14006KT 9SM -SN FEW005 BKN027 OVC042 M02/M02 A2936 RMK AO2 P0000 FZRANO
PAZK 111756Z AUTO 12011G17KT 9SM -SN FEW050 SCT060 M02/M02 A2931 RMK AO2 SLP976 P0000 60009 T10171022 11011 21039 53048 FZRANO
PAZK 111656Z AUTO 12009G16KT 9SM -SN SCT007 SCT015 BKN070 M02/M02 A2926 RMK AO2 SLP956 P0002 T10171022 FZRANO
PAZK 111651Z AUTO 09008G17KT 9SM -SN SCT007 BKN015 BKN050 M02/M02 A2925 RMK AO2 P0002 FZRANO
PAZK 111627Z AUTO 11012G20KT 4SM -SN BR OVC009 M02/M02 A2922 RMK AO2 CIG 006V012 P0002 FZRANO
PAZK 111556Z AUTO 13013G21KT 1 3/4SM -SN BR BKN009 OVC014 M02/M02 A2920 RMK AO2 CIG 005V011 SLP935 P0004 T10171022 FZRANO
PAZK 111540Z AUTO 13013G22KT 1 1/4SM -SN BR BKN007 OVC012 M02/M03 A2918 RMK AO2 VIS 1V2 1/2 CIG 005V010 P0004 FZRANO
PAZK 111516Z AUTO 10009KT 1 1/4SM -SN BR OVC010 M02/M03 A2917 RMK AO2 P0001 FZRANO
PAZK 111456Z AUTO 07009KT 1 1/4SM -SN BR OVC010 M03/M03 A2916 RMK AO2 CIG 006V014 SLP921 P0001 60003 T10281028 53019 FZRANO
PAZK 111433Z AUTO 03008KT 1 1/4SM -SN BR OVC010 M03/M04 A2914 RMK AO2 CIG 005V012 P0000 FZRANO
PAZK 111356Z AUTO 01007KT 1 3/4SM -SN BR OVC005 M04/M04 A2913 RMK AO2 SLP915 P0002 T10391044 FZRANO
PAZK 111346Z AUTO 04007KT 1 1/4SM -SN BR OVC005 M04/M04 A2913 RMK AO2 P0001 FZRANO
PAZK 111340Z AUTO 03006KT 3/4SM -SN BR OVC005 M04/M04 A2913 RMK AO2 CIG 003V007 P0000 FZRANO
PAZK 111331Z AUTO 04007KT 1SM -SN BR OVC005 M04/M04 A2912 RMK AO2 CIG 003V009 P0000 FZRANO
PAZK 111315Z AUTO 08007KT 1 3/4SM -SN BR BKN007 OVC014 M03/M04 A2911 RMK AO2 P0000 FZRANO
PAZK 111306Z AUTO 05009KT 1 3/4SM -SN BR SCT007 OVC014 M04/M04 A2909 RMK AO2 P0000 FZRANO
PAZK 111256Z AUTO 01012KT 1 1/2SM -SN BR OVC014 M04/M04 A2908 RMK AO2 SLP898 P0000 T10391044 FZRANO
PAZK 111205Z AUTO 01013KT 1 1/4SM -SN BR SCT009 OVC014 M04/M04 A2909 RMK AO2 P0000 FZRANO
PAZK 111156Z AUTO 01012KT 1 1/2SM -SN BR BKN007 OVC014 M04/M04 A2909 RMK AO2 CIG 006V012 SLP900 P0001 60004 7//// T10391044 11033 21039 58012 FZRANO
PAZK 111130Z AUTO 02010KT 1 1/4SM -SN BR OVC007 M04/M05 A2910 RMK AO2 P0000 FZRANO
PAZK 111123Z AUTO 04010KT 1SM -SN BR OVC007 M04/M04 A2910 RMK AO2 P0000 FZRANO
PAZK 111112Z AUTO 05010KT 3/4SM -SN BR OVC007 M04/M04 A2911 RMK AO2 P0000 FZRANO
PAZK 111056Z AUTO 05009KT 1SM -SN BR OVC007 M03/M04 A2912 RMK AO2 SLP910 P0001 T10331044 FZRANO
PAZK 111052Z AUTO 04009KT 1SM -SN BR OVC007 M03/M04 A2911 RMK AO2 P0001 FZRANO
PAZK 111030Z AUTO 02009KT 3/4SM -SN BR OVC007 M04/M04 A2912 RMK AO2 P0001 FZRANO
PAZK 111013Z AUTO 03010KT 3/4SM -SN BR OVC005 M04/M04 A2913 RMK AO2 CIG 004V008 P0000 FZRANO
PAZK 110956Z AUTO 02009KT 1SM -SN BR OVC005 M04/M04 A2913 RMK AO2 SLP916 P0001 T10391044 FZRANO
PAZK 110954Z AUTO 02007KT 1SM -SN BR OVC005 M04/M04 A2913 RMK AO2 P0001 FZRANO
PAZK 110918Z AUTO 04010KT 1 3/4SM -SN BR OVC005 M03/M04 A2914 RMK AO2 CIG 003V007 P0000 FZRANO
PAZK 110907Z AUTO 04010KT 3SM -SN BR BKN005 OVC015 M03/M04 A2915 RMK AO2 CIG 004V009 P0000 FZRANO
PAZK 110856Z AUTO 04012KT 4SM -SN BR SCT007 OVC015 M04/M04 A2914 RMK AO2 SLP918 P0001 60001 T10391039 410281056 56054 FZRANO
PAZK 110845Z AUTO 02012KT 2SM -SN BR BKN015 OVC021 M04/M04 A2915 RMK AO2 P0001 FZRANO
PAZK 110820Z AUTO 03012KT 1 3/4SM -SN BR SCT008 OVC024 M04/M04 A2917 RMK AO2 PRESFR P0000 FZRANO
PAZK 110805Z AUTO 02011KT 2SM -SN BR BKN008 OVC030 M04/M05 A2919 RMK AO2 P0000 FZRANO
PAZK 110756Z AUTO 02012G17KT 1SM -SN BR OVC008 M04/M05 A2919 RMK AO2 PRESFR SLP937 P0000 T10391050 FZRANO
PAZK 110723Z AUTO 02010KT 1SM -SN BR OVC008 M04/M04 A2924 RMK AO2 P0000 FZRANO
PAZK 110703Z AUTO 02011KT 1 1/4SM -SN BR OVC008 M04/M04 A2926 RMK AO2 P0000 FZRANO
PAZK 110656Z AUTO 02010KT 1SM -SN BR OVC008 M04/M04 A2926 RMK AO2 SLP959 P0000 T10391044 FZRANO
PAZK 110648Z AUTO 01013KT 1SM -SN BR OVC008 M04/M04 A2927 RMK AO2 P0000 FZRANO
PAZK 110637Z AUTO 02011KT 3/4SM -SN BR OVC008 M04/M04 A2927 RMK AO2 CIG 007V011 PRESFR P0000 FZRANO
PAZK 110556Z AUTO 36011KT 1SM -SN BR OVC008 M04/M04 A2932 RMK AO2 SLP978 P0001 60002 T10391044 11028 21056 58039 FZRANO
PAZK 110542Z AUTO 36011G17KT 3/4SM -SN BR OVC008 M04/M04 A2933 RMK AO2 PRESFR P0000 FZRANO
PAZK 110529Z AUTO 36012KT 1/2SM SN FZFG OVC008 M04/M04 A2935 RMK AO2 P0000 FZRANO
PAZK 110522Z AUTO 35011KT 1SM -SN BR OVC008 M04/M04 A2936 RMK AO2 P0000 FZRANO
PAZK 110456Z AUTO 35010KT 3/4SM -SN BR OVC008 M04/M04 A2939 RMK AO2 CIG 007V010 SLPNO P0001 T10391044 FZRANO
PAZK 110448Z AUTO 01010KT 1SM -SN BR OVC008 M04/M04 A2939 RMK AO2 CIG 007V010 P0000 FZRANO
PAZK 110438Z AUTO 36011KT 3/4SM -SN BR OVC010 M04/M05 A2940 RMK AO2 P0000 FZRANO
PAZK 110417Z AUTO 36010KT 1 1/4SM -SN BR FEW006 OVC012 M04/M05 A2942 RMK AO2 P0000 FZRANO
PAZK 110405Z AUTO 01010KT 3/4SM -SN BR FEW008 OVC015 M04/M05 A2943 RMK AO2 P0000 FZRANO
PAZK 110356Z AUTO 01010KT 1SM -SN BR OVC015 M04/M05 A2944 RMK AO2 SLPNO P0000 T10391050 FZRANO
PAZK 110354Z AUTO 01011KT 1SM -SN BR OVC015 M04/M05 A2944 RMK AO2 P0000 FZRANO
PAZK 110328Z AUTO 04013KT 1 3/4SM -SN BR SCT017 BKN022 OVC050 M03/M04 A2944 RMK AO2 P0000 FZRANO
PAZK 110317Z AUTO 04013G20KT 2 1/2SM -SN BR BKN021 BKN050 OVC060 M03/M04 A2945 RMK AO2 P0000 FZRANO
PAZK 110256Z AUTO 04015G20KT 9SM -SN FEW065 M03/M04 A2946 RMK AO2 SNB44 SLPNO P0000 60000 T10281039 56046 FZRANO
PAZK 110156Z AUTO 01012KT 10SM FEW100 M03/M05 A2949 RMK AO2 SLPNO T10331050 FZRANO
PAZK 110056Z AUTO 36010KT 10SM CLR M04/M06 A2955 RMK AO2 SLPNO T10441061 FZRANO
PAZK 102356Z AUTO 36006KT 10SM CLR M03/M06 A2961 RMK AO2 SNB01E11 PRESFR SLPNO P0000 60000 T10331061 11028 21050 58027 FZRANO